Time;durP1;ratioP1;P1;durP2;ratioP2;P2;SDS_P1;SDS_P2;PMS_P1;PMS_P2;Temp;Humidity;BMP_temperature;BMP_pressure;BME280_temperature;BME280_humidity;BME280_pressure;Samples;Min_cycle;Max_cycle;Signal;HPM_P1;HPM_P2
2022/12/29 00:00:53;;;;;;;4.25;1.70;;;;;;;9.87;100.00;99887.03;5051340;28;20050;-60
2022/12/29 00:03:20;;;;;;;5.13;1.75;;;;;;;9.88;100.00;99894.00;5030979;28;20057;-60
2022/12/29 00:05:54;;;;;;;3.65;1.73;;;;;;;9.90;100.00;99892.00;5035795;28;20045;-60
2022/12/29 00:08:38;;;;;;;6.45;1.80;;;;;;;9.90;100.00;99881.41;5031232;28;20125;-60
2022/12/29 00:11:08;;;;;;;4.50;1.63;;;;;;;9.84;100.00;99877.63;5035920;28;20124;-61
2022/12/29 00:16:22;;;;;;;3.45;1.55;;;;;;;10.05;100.00;99870.91;5035692;28;20045;-60
2022/12/29 00:18:49;;;;;;;4.22;1.70;;;;;;;10.02;100.00;99860.66;5031273;28;20398;-60
2022/12/29 00:35:33;;;;;;;3.53;1.60;;;;;;;10.13;100.00;99847.84;5007957;28;20054;-60
2022/12/29 00:44:10;;;;;;;3.22;1.45;;;;;;;10.17;100.00;99838.56;5015640;28;20054;-61
2022/12/29 00:46:25;;;;;;;5.00;1.52;;;;;;;10.22;100.00;99848.63;5011084;28;20069;-61
2022/12/29 00:51:39;;;;;;;2.17;1.20;;;;;;;10.26;99.53;99834.03;5011142;28;20046;-61
2022/12/29 00:54:06;;;;;;;3.10;1.30;;;;;;;10.25;99.17;99823.59;5015591;28;20089;-60
2022/12/29 00:56:32;;;;;;;1.98;1.20;;;;;;;10.26;99.56;99827.88;5011257;28;20406;-61
2022/12/29 00:59:01;;;;;;;4.03;1.40;;;;;;;10.30;99.20;99816.78;5016470;28;20388;-61
2022/12/29 01:01:28;;;;;;;2.85;1.10;;;;;;;10.33;98.45;99831.53;5029833;28;20050;-61
2022/12/29 01:03:56;;;;;;;5.32;1.30;;;;;;;10.52;96.67;99825.78;5034680;28;20128;-59
2022/12/29 01:06:26;;;;;;;3.05;1.20;;;;;;;10.60;96.83;99834.69;5029161;28;20119;-59
2022/12/29 01:11:40;;;;;;;2.88;1.30;;;;;;;10.65;95.55;99822.53;5029935;28;20053;-60
2022/12/29 01:14:07;;;;;;;4.00;1.30;;;;;;;10.74;94.51;99829.44;5033718;28;20045;-60
2022/12/29 01:16:36;;;;;;;2.22;1.10;;;;;;;10.87;93.30;99841.28;5030680;28;20447;-60
2022/12/29 01:19:03;;;;;;;2.85;1.10;;;;;;;10.85;94.46;99838.00;5034727;28;20479;-60
2022/12/29 01:21:30;;;;;;;2.50;1.10;;;;;;;10.78;94.35;99835.22;5030638;28;20072;-60
2022/12/29 01:23:57;;;;;;;3.10;1.00;;;;;;;10.95;92.36;99831.44;5034961;28;20042;-60
2022/12/29 01:26:24;;;;;;;1.75;0.90;;;;;;;11.00;92.08;99824.78;5029896;28;20103;-61
2022/12/29 01:28:51;;;;;;;1.45;0.93;;;;;;;11.07;92.04;99828.34;5034892;28;20056;-61
2022/12/29 01:31:18;;;;;;;1.88;1.20;;;;;;;11.06;91.00;99821.38;5030283;28;20055;-61
2022/12/29 01:33:45;;;;;;;3.50;1.00;;;;;;;11.03;91.93;99821.75;5034368;28;20398;-60
2022/12/29 01:36:14;;;;;;;2.75;1.02;;;;;;;10.96;91.57;99824.31;5025434;28;20048;-60
2022/12/29 01:38:41;;;;;;;1.48;1.10;;;;;;;11.06;90.55;99822.22;5034034;28;20060;-60
2022/12/29 01:41:11;;;;;;;1.80;1.00;;;;;;;11.11;89.36;99829.63;5029194;28;20144;-60
2022/12/29 01:43:46;;;;;;;2.72;1.20;;;;;;;11.09;89.30;99823.69;5034075;28;20045;-61
2022/12/29 01:46:38;;;;;;;3.55;1.27;;;;;;;11.14;88.16;99822.16;5028753;28;20380;-60
2022/12/29 01:51:52;;;;;;;1.60;1.10;;;;;;;11.09;88.81;99810.41;5106719;27;20136;-60
2022/12/29 01:54:24;;;;;;;2.33;1.10;;;;;;;11.20;87.54;99803.84;5110051;28;20048;-59
2022/12/29 01:56:57;;;;;;;2.05;1.25;;;;;;;11.16;88.36;99811.34;5106396;28;20123;-60
2022/12/29 01:59:29;;;;;;;2.88;1.40;;;;;;;11.22;86.40;99807.16;5110725;28;20066;-60
2022/12/29 02:01:55;;;;;;;;;;;;;;;11.17;86.77;99802.41;5089164;28;20052;-59
2022/12/29 02:04:24;;;;;;;3.15;1.25;;;;;;;11.20;85.83;99802.00;5110835;28;19924;-59
2022/12/29 02:06:59;;;;;;;4.95;1.33;;;;;;;11.21;86.13;99818.78;5104575;28;20074;-60
2022/12/29 02:09:26;;;;;;;3.22;1.10;;;;;;;11.20;85.46;99796.69;5110987;28;20488;-60
2022/12/29 02:11:53;;;;;;;3.75;1.25;;;;;;;11.23;85.69;99792.88;5106067;28;20455;-60
2022/12/29 02:14:20;;;;;;;5.85;1.35;;;;;;;11.25;83.86;99802.28;5109729;28;20093;-60
2022/12/29 02:23:31;;;;;;;6.85;1.67;;;;;;;11.30;82.81;99791.97;5111117;27;20354;-59
2022/12/29 02:26:37;;;;;;;4.93;1.48;;;;;;;11.32;82.76;99789.13;5106600;28;20137;-60
2022/12/29 02:29:44;;;;;;;2.88;1.40;;;;;;;11.30;82.13;99794.63;5109253;28;20117;-59
2022/12/29 02:32:24;;;;;;;4.95;1.40;;;;;;;11.29;81.83;99779.69;5106563;28;20040;-60
2022/12/29 02:35:25;;;;;;;4.22;1.52;;;;;;;11.34;81.55;99777.31;5110764;28;20044;-60
2022/12/29 02:38:33;;;;;;;4.88;1.67;;;;;;;11.31;81.91;99772.38;5110523;28;20050;-60
2022/12/29 02:41:12;;;;;;;6.05;1.75;;;;;;;11.32;81.22;99771.38;5106155;28;20040;-60
2022/12/29 02:43:51;;;;;;;3.92;1.33;;;;;;;11.34;80.94;99766.69;5111054;28;20127;-60
2022/12/29 02:46:27;;;;;;;5.20;1.50;;;;;;;11.35;81.45;99764.88;5106333;28;20127;-60
2022/12/29 02:49:05;;;;;;;5.50;1.50;;;;;;;11.35;81.68;99764.88;5109241;28;20044;-59
2022/12/29 02:51:59;;;;;;;4.60;1.50;;;;;;;11.37;81.33;99754.91;5106091;28;20047;-60
2022/12/29 02:54:42;;;;;;;6.07;1.50;;;;;;;11.33;81.63;99748.28;5110415;28;20044;-60
2022/12/29 02:57:14;;;;;;;3.83;1.35;;;;;;;11.43;81.02;99750.69;5105779;28;20089;-60
2022/12/29 02:59:43;;;;;;;3.20;1.50;;;;;;;11.37;81.85;99748.75;5110342;28;20055;-60
2022/12/29 03:02:37;;;;;;;2.65;1.30;;;;;;;11.46;81.24;99737.00;5084152;28;20436;-60
2022/12/29 03:05:17;;;;;;;2.67;1.40;;;;;;;11.40;82.71;99751.03;5107543;28;20374;-60
2022/12/29 03:08:16;;;;;;;4.32;1.30;;;;;;;11.41;81.85;99736.75;5109611;28;20043;-60
2022/12/29 03:17:34;;;;;;;4.63;1.55;;;;;;;11.34;82.43;99724.19;5105546;28;20044;-60
2022/12/29 03:20:07;;;;;;;3.47;1.35;;;;;;;11.46;82.61;99731.69;5108569;28;20113;-60
2022/12/29 03:22:44;;;;;;;3.42;1.48;;;;;;;11.40;82.61;99722.66;5106719;28;20055;-61
2022/12/29 03:25:27;;;;;;;2.80;1.23;;;;;;;11.39;82.70;99721.00;5105844;28;20515;-60
2022/12/29 03:28:01;;;;;;;2.28;1.10;;;;;;;11.38;82.85;99734.47;5109694;28;20043;-60
2022/12/29 03:30:32;;;;;;;3.65;1.33;;;;;;;11.50;81.82;99717.06;5105366;28;20024;-60
2022/12/29 03:33:03;;;;;;;3.08;1.30;;;;;;;11.50;82.00;99725.84;5103042;28;20118;-60
2022/12/29 03:35:36;;;;;;;5.20;1.45;;;;;;;11.43;82.55;99722.28;5092165;28;20127;-60
2022/12/29 03:38:15;;;;;;;3.45;1.30;;;;;;;11.47;82.52;99717.44;5092730;28;20056;-60
2022/12/29 03:40:48;;;;;;;3.88;1.40;;;;;;;11.40;84.11;99724.47;5096152;28;20048;-60
2022/12/29 03:43:16;;;;;;;4.78;1.48;;;;;;;11.36;84.03;99708.09;5058049;28;20545;-60
2022/12/29 03:45:44;;;;;;;3.60;1.17;;;;;;;11.46;82.50;99716.63;5095100;28;20056;-60
2022/12/29 03:48:11;;;;;;;3.63;1.40;;;;;;;11.59;81.92;99709.78;5091402;28;20102;-60
2022/12/29 03:50:40;;;;;;;6.32;1.40;;;;;;;11.55;82.33;99709.38;5096186;28;20055;-60
2022/12/29 03:53:07;;;;;;;5.72;1.50;;;;;;;11.64;82.24;99710.06;5091408;28;20050;-60
2022/12/29 03:55:34;;;;;;;4.68;1.55;;;;;;;11.48;82.17;99703.16;5095890;28;20127;-60
2022/12/29 03:58:01;;;;;;;2.05;1.10;;;;;;;11.53;82.72;99690.97;5073114;28;20040;-60
2022/12/29 04:00:43;;;;;;;;;;;;;;;11.62;81.99;99707.59;5095286;28;20044;-61
2022/12/29 04:03:10;;;;;;;2.15;1.10;;;;;;;11.64;81.92;99675.53;5089935;28;19923;-60
2022/12/29 04:05:37;;;;;;;3.75;1.38;;;;;;;11.53;83.09;99660.91;5095367;28;20044;-60
2022/12/29 04:08:04;;;;;;;3.25;1.40;;;;;;;11.48;83.20;99669.44;5089421;28;20218;-60
2022/12/29 04:10:30;;;;;;;1.50;1.15;;;;;;;11.50;83.08;99662.09;5094247;28;20055;-60
2022/12/29 04:12:59;;;;;;;2.88;1.10;;;;;;;11.50;83.16;99682.53;5089539;28;20032;-60
2022/12/29 04:15:26;;;;;;;2.88;1.20;;;;;;;11.45;83.10;99690.25;5095545;28;20040;-60
2022/12/29 04:17:53;;;;;;;2.78;1.10;;;;;;;11.54;81.90;99686.47;5090549;28;20040;-60
2022/12/29 04:23:07;;;;;;;2.33;1.20;;;;;;;11.60;81.48;99688.38;5075357;28;20044;-60
2022/12/29 04:25:35;;;;;;;2.30;1.13;;;;;;;11.60;81.39;99714.94;5095743;28;20044;-60
2022/12/29 04:28:02;;;;;;;3.88;1.33;;;;;;;11.57;81.39;99704.69;5090059;28;20127;-60
2022/12/29 04:30:49;;;;;;;3.47;1.40;;;;;;;11.59;81.21;99707.13;5094240;28;20048;-60
2022/12/29 04:33:21;;;;;;;2.28;1.20;;;;;;;11.60;80.67;99709.63;5089306;28;20047;-61
2022/12/29 04:35:48;;;;;;;2.80;1.08;;;;;;;11.61;80.47;99700.66;5094191;28;20048;-60
2022/12/29 04:38:16;;;;;;;6.30;1.67;;;;;;;11.60;80.47;99693.69;5087000;28;20036;-61
2022/12/29 04:40:43;;;;;;;3.53;1.30;;;;;;;11.61;80.08;99692.69;5094945;28;20043;-60
2022/12/29 04:43:11;;;;;;;2.90;1.13;;;;;;;11.63;79.74;99695.97;5090198;28;20050;-60
2022/12/29 04:45:57;;;;;;;5.28;1.20;;;;;;;11.58;79.15;99694.88;5093705;28;20044;-60
2022/12/29 04:48:29;;;;;;;2.90;1.17;;;;;;;11.64;78.51;99710.06;5089263;28;20105;-60
2022/12/29 04:51:07;;;;;;;5.35;1.30;;;;;;;11.64;78.69;99705.59;5094976;28;20052;-60
2022/12/29 04:53:38;;;;;;;2.92;1.30;;;;;;;11.71;78.35;99705.66;5089009;28;20405;-60
2022/12/29 04:56:05;;;;;;;3.55;1.40;;;;;;;11.70;78.29;99712.00;5094510;28;20077;-60
2022/12/29 04:58:32;;;;;;;4.75;1.40;;;;;;;11.61;79.71;99719.25;5090143;28;20036;-60
2022/12/29 05:00:59;;;;;;;2.70;1.20;;;;;;;11.59;79.24;99710.63;5091624;28;20054;-60
2022/12/29 05:03:28;;;;;;;3.50;1.30;;;;;;;11.57;79.30;99703.84;5074622;28;20032;-60
2022/12/29 05:05:56;;;;;;;5.55;1.42;;;;;;;11.66;78.87;99705.38;5094251;28;20047;-60
2022/12/29 05:08:23;;;;;;;3.28;1.20;;;;;;;11.53;79.48;99716.69;5088086;28;20547;-60
2022/12/29 05:10:53;;;;;;;3.90;1.30;;;;;;;11.64;79.19;99710.06;5094613;28;20040;-60
2022/12/29 05:13:20;;;;;;;5.30;1.55;;;;;;;11.53;79.07;99706.06;5089409;28;20042;-60
2022/12/29 05:15:52;;;;;;;5.85;1.40;;;;;;;11.59;79.07;99718.63;5092857;28;20036;-60
2022/12/29 05:18:21;;;;;;;5.00;1.40;;;;;;;11.67;78.54;99726.47;5088375;28;20055;-60
2022/12/29 05:20:49;;;;;;;6.90;1.60;;;;;;;11.58;78.18;99727.56;5093904;28;20044;-60
2022/12/29 05:23:17;;;;;;;5.20;1.52;;;;;;;11.52;79.72;99726.50;5089681;28;20123;-60
2022/12/29 05:25:48;;;;;;;5.57;1.45;;;;;;;11.50;79.00;99725.84;5092746;28;20052;-60
2022/12/29 05:28:19;;;;;;;1.83;1.17;;;;;;;11.60;78.68;99733.53;5089552;28;20048;-60
2022/12/29 05:30:53;;;;;;;5.53;1.50;;;;;;;11.66;78.39;99724.81;5093694;28;20062;-60
2022/12/29 05:33:20;;;;;;;7.38;1.50;;;;;;;11.55;78.37;99717.34;5089343;28;20048;-60
2022/12/29 05:35:48;;;;;;;6.40;1.58;;;;;;;11.45;79.28;99728.22;5093891;28;20044;-60
2022/12/29 05:38:16;;;;;;;4.28;1.50;;;;;;;11.43;79.43;99721.47;5089484;28;20052;-60
2022/12/29 05:40:43;;;;;;;5.53;1.30;;;;;;;11.33;79.53;99725.22;5093904;28;20036;-60
2022/12/29 05:43:21;;;;;;;4.00;1.42;;;;;;;11.34;80.12;99726.03;5089107;28;20064;-60
2022/12/29 05:46:06;;;;;;;4.35;1.40;;;;;;;11.30;79.16;99728.25;5094150;28;20051;-60
2022/12/29 05:48:44;;;;;;;2.58;1.20;;;;;;;11.40;79.03;99733.25;5087702;28;20431;-60
2022/12/29 05:51:17;;;;;;;5.28;1.50;;;;;;;11.27;79.44;99727.78;5093712;28;20039;-60
2022/12/29 05:53:48;;;;;;;3.65;1.30;;;;;;;11.34;78.66;99737.47;5089011;28;20138;-60
2022/12/29 05:56:16;;;;;;;9.30;1.67;;;;;;;11.40;78.00;99716.50;5093368;28;20055;-60
2022/12/29 05:58:45;;;;;;;4.13;1.20;;;;;;;11.42;77.64;99730.44;5087537;28;20082;-60
2022/12/29 06:01:12;;;;;;;4.55;1.40;;;;;;;11.31;78.75;99742.34;5093935;28;20532;-61
2022/12/29 06:03:38;;;;;;;4.50;1.23;;;;;;;11.37;77.57;99746.94;5089027;28;20047;-61
2022/12/29 06:06:08;;;;;;;4.85;1.60;;;;;;;11.36;78.58;99752.41;5093274;28;20495;-61
2022/12/29 06:08:36;;;;;;;7.00;1.35;;;;;;;11.28;77.75;99761.31;5088393;28;20461;-60
2022/12/29 06:11:02;;;;;;;6.60;1.50;;;;;;;11.29;77.89;99769.06;5093589;28;20044;-61
2022/12/29 06:13:29;;;;;;;5.55;1.23;;;;;;;11.24;77.90;99752.03;5087693;28;20036;-61
2022/12/29 06:15:56;;;;;;;4.50;1.25;;;;;;;11.19;78.66;99762.38;5092225;28;20627;-61
2022/12/29 06:18:25;;;;;;;6.95;1.30;;;;;;;11.07;79.61;99754.03;5087420;28;20516;-61
2022/12/29 06:20:52;;;;;;;4.38;1.27;;;;;;;11.02;78.67;99756.41;5092961;28;20537;-61
2022/12/29 06:23:19;;;;;;;3.35;1.00;;;;;;;11.04;78.77;99767.66;5088492;28;20044;-61
2022/12/29 06:25:48;;;;;;;3.42;1.10;;;;;;;11.07;78.98;99768.13;5093761;28;20052;-61
2022/12/29 06:28:14;;;;;;;7.82;1.50;;;;;;;11.02;79.23;99773.16;5088484;28;20098;-61
2022/12/29 06:30:45;;;;;;;4.75;1.20;;;;;;;11.14;78.46;99787.63;5093255;28;20540;-61
2022/12/29 06:33:12;;;;;;;5.60;1.27;;;;;;;11.13;78.88;99793.97;5088573;28;20083;-61
2022/12/29 06:35:39;;;;;;;4.82;1.30;;;;;;;11.00;79.55;99795.56;5093515;28;20044;-61
2022/12/29 06:38:06;;;;;;;5.75;1.45;;;;;;;10.91;80.31;99808.94;5088864;28;20044;-61
2022/12/29 06:40:32;;;;;;;6.63;1.30;;;;;;;11.00;78.73;99806.19;5089790;28;20044;-61
2022/12/29 06:43:19;;;;;;;5.35;1.15;;;;;;;11.03;78.16;99801.34;5092908;28;20043;-61
2022/12/29 06:46:06;;;;;;;4.65;1.13;;;;;;;10.89;79.36;99810.91;5090168;28;20532;-62
2022/12/29 06:48:32;;;;;;;5.07;1.27;;;;;;;10.96;78.45;99803.06;5092085;28;20032;-61
2022/12/29 06:50:59;;;;;;;6.10;1.20;;;;;;;10.99;77.34;99804.53;5088452;28;20044;-61
2022/12/29 06:53:26;;;;;;;5.65;1.25;;;;;;;11.01;77.33;99806.00;5093269;28;20036;-61
2022/12/29 06:55:54;;;;;;;9.23;1.58;;;;;;;11.07;76.62;99818.56;5087411;28;20044;-61
2022/12/29 06:58:20;;;;;;;8.38;1.38;;;;;;;11.04;77.05;99813.63;5091663;28;20048;-61
2022/12/29 07:00:48;;;;;;;4.95;1.42;;;;;;;10.97;78.15;99811.84;5085714;28;20040;-61
2022/12/29 07:03:14;;;;;;;6.45;1.30;;;;;;;11.00;76.96;99825.59;5082328;28;20432;-61
2022/12/29 07:05:41;;;;;;;10.70;2.25;;;;;;;11.01;78.06;99808.66;5086853;28;20046;-61
2022/12/29 07:08:08;;;;;;;9.20;1.50;;;;;;;11.07;76.21;99813.25;5075594;28;20050;-61
2022/12/29 07:10:35;;;;;;;2.63;1.05;;;;;;;11.01;76.77;99815.81;5076175;28;20048;-61
2022/12/29 07:13:02;;;;;;;8.40;1.30;;;;;;;11.06;76.40;99826.69;5071247;28;20036;-61
2022/12/29 07:15:28;;;;;;;10.32;1.80;;;;;;;11.10;76.30;99823.50;5074964;28;20041;-61
2022/12/29 07:17:55;;;;;;;9.52;2.28;;;;;;;11.07;76.17;99828.34;5071825;28;20435;-61
2022/12/29 07:20:22;;;;;;;5.53;1.33;;;;;;;11.10;75.82;99830.66;5075860;28;20044;-62
2022/12/29 07:22:52;;;;;;;6.40;1.52;;;;;;;10.97;76.43;99827.78;5087182;28;20494;-60
2022/12/29 07:25:19;;;;;;;4.75;1.10;;;;;;;10.91;76.74;99832.81;5076106;28;20052;-60
2022/12/29 07:27:45;;;;;;;7.60;1.27;;;;;;;10.90;76.53;99825.84;5071788;28;20053;-61
2022/12/29 07:30:12;;;;;;;5.75;1.45;;;;;;;10.90;76.87;99846.25;5075902;28;20048;-61
2022/12/29 07:32:39;;;;;;;10.65;1.50;;;;;;;10.98;76.01;99842.69;5071718;28;20041;-61
2022/12/29 07:35:07;;;;;;;10.93;2.42;;;;;;;10.90;76.72;99841.75;5093529;28;20509;-61
2022/12/29 07:37:34;;;;;;;9.18;2.00;;;;;;;10.89;76.38;99847.25;5090634;28;20097;-61
2022/12/29 07:40:03;;;;;;;11.98;1.60;;;;;;;10.86;76.07;99850.25;5093161;28;20181;-61
2022/12/29 07:42:30;;;;;;;10.85;1.98;;;;;;;10.82;76.80;99867.53;5095590;28;20040;-61
2022/12/29 07:44:58;;;;;;;9.18;1.50;;;;;;;10.80;76.95;99861.56;5091570;28;20044;-61
2022/12/29 07:47:29;;;;;;;8.40;1.67;;;;;;;10.90;75.78;99868.28;5078593;28;20067;-61
2022/12/29 07:49:56;;;;;;;4.75;1.23;;;;;;;10.90;75.97;99878.09;5091683;28;20343;-61
2022/12/29 07:52:22;;;;;;;9.38;1.60;;;;;;;10.86;75.46;99882.09;5095696;28;20044;-61
2022/12/29 07:54:49;;;;;;;10.93;1.67;;;;;;;10.84;74.51;99876.97;5092975;28;20044;-61
2022/12/29 07:57:16;;;;;;;6.57;1.50;;;;;;;10.87;74.31;99876.59;5093663;28;20044;-61
2022/12/29 07:59:43;;;;;;;8.50;1.75;;;;;;;10.92;74.11;99892.81;5094094;28;20482;-61
2022/12/29 08:02:11;;;;;;;10.30;1.90;;;;;;;10.91;74.37;99882.38;5093335;28;20047;-61
2022/12/29 08:04:38;;;;;;;10.63;1.70;;;;;;;10.88;74.23;99878.25;5094707;28;20048;-60
2022/12/29 08:07:04;;;;;;;8.63;1.67;;;;;;;10.77;75.43;99873.38;5091963;28;20043;-61
2022/12/29 08:09:31;;;;;;;11.85;1.77;;;;;;;10.80;75.14;99873.00;5095488;28;20067;-61
2022/12/29 08:11:58;;;;;;;4.72;1.38;;;;;;;10.73;76.32;99870.25;5090946;28;20039;-61
2022/12/29 08:14:24;;;;;;;8.38;1.85;;;;;;;10.78;75.21;99887.47;5093640;28;20047;-61
2022/12/29 08:16:51;;;;;;;10.30;1.80;;;;;;;10.80;75.06;99894.22;5091525;28;20466;-61
2022/12/29 08:19:18;;;;;;;7.78;1.30;;;;;;;10.81;74.20;99876.50;5095410;28;20046;-61
2022/12/29 08:21:44;;;;;;;10.65;1.65;;;;;;;10.82;74.80;99888.75;5090559;28;20051;-61
2022/12/29 08:24:11;;;;;;;10.13;1.98;;;;;;;10.81;74.49;99887.94;5095453;28;20123;-61
2022/12/29 08:26:39;;;;;;;9.88;1.77;;;;;;;10.85;73.51;99899.00;5090707;28;20047;-61
2022/12/29 08:29:05;;;;;;;14.43;2.05;;;;;;;10.85;74.18;99891.88;5095203;28;20131;-61
2022/12/29 08:31:32;;;;;;;10.15;1.80;;;;;;;10.75;75.45;99894.78;5090770;28;20105;-60
2022/12/29 08:33:59;;;;;;;5.93;1.60;;;;;;;10.78;74.71;99916.63;5094711;28;20495;-60
2022/12/29 08:36:26;;;;;;;8.45;1.60;;;;;;;10.70;76.62;99920.19;5090679;28;20047;-60
2022/12/29 08:38:53;;;;;;;7.15;1.73;;;;;;;10.60;78.41;99938.13;5094651;28;20527;-60
2022/12/29 08:41:19;;;;;;;6.85;1.45;;;;;;;10.43;79.82;99926.78;5087305;28;20048;-60
2022/12/29 08:43:47;;;;;;;4.45;1.38;;;;;;;10.22;81.67;99919.38;5094553;28;20040;-60
2022/12/29 08:46:14;;;;;;;9.52;1.50;;;;;;;10.02;83.03;99927.72;5091414;28;20485;-60
2022/12/29 08:48:41;;;;;;;8.20;1.50;;;;;;;10.01;83.19;99925.25;5093236;28;20051;-60
2022/12/29 08:51:08;;;;;;;6.78;1.55;;;;;;;9.95;83.74;99926.72;5092219;28;20040;-60
2022/12/29 08:53:35;;;;;;;12.30;1.85;;;;;;;9.84;84.62;99925.28;5093532;28;20043;-60
2022/12/29 08:56:02;;;;;;;11.93;1.90;;;;;;;9.89;84.86;99922.94;5093328;28;20044;-60
2022/12/29 08:58:35;;;;;;;8.25;1.55;;;;;;;9.98;83.27;99924.56;5091782;28;20493;-60
2022/12/29 09:01:02;;;;;;;8.05;1.80;;;;;;;10.02;82.66;99930.34;5093212;28;20119;-62
2022/12/29 09:03:29;;;;;;;11.48;1.70;;;;;;;10.04;82.34;99939.00;5079447;28;20036;-60
2022/12/29 09:06:17;;;;;;;7.80;1.70;;;;;;;10.13;82.27;99921.22;5088879;28;20048;-61
2022/12/29 09:08:44;;;;;;;8.48;2.10;;;;;;;10.30;82.75;99936.06;5094109;28;20048;-61
2022/12/29 09:11:19;;;;;;;11.27;2.13;;;;;;;10.45;79.93;99941.50;5091662;28;20048;-61
2022/12/29 09:13:46;;;;;;;10.52;2.03;;;;;;;10.63;78.62;99943.91;5093556;28;20568;-61
2022/12/29 09:16:14;;;;;;;8.95;1.73;;;;;;;10.63;78.35;99935.13;5090189;28;20059;-60
2022/12/29 09:18:41;;;;;;;11.80;1.75;;;;;;;10.59;78.26;99944.41;5093931;28;20130;-60
2022/12/29 09:21:10;;;;;;;9.95;1.70;;;;;;;10.73;77.47;99967.56;5091743;28;20125;-60
2022/12/29 09:23:38;;;;;;;12.18;2.03;;;;;;;10.89;76.39;99953.38;5092869;28;20043;-60
2022/12/29 09:26:07;;;;;;;8.05;1.60;;;;;;;10.94;76.02;99965.13;5091157;28;20075;-60
2022/12/29 09:28:34;;;;;;;7.30;1.50;;;;;;;10.98;74.08;99959.47;5092606;28;20062;-60
2022/12/29 09:31:01;;;;;;;9.68;1.77;;;;;;;11.01;74.30;99962.59;5091184;28;20040;-60
2022/12/29 09:33:28;;;;;;;13.80;1.70;;;;;;;11.12;74.12;99962.19;5090622;28;20082;-61
2022/12/29 09:35:57;;;;;;;9.77;1.95;;;;;;;11.02;73.90;99972.19;5093870;28;20052;-60
2022/12/29 09:38:25;;;;;;;12.75;2.03;;;;;;;10.97;74.02;99971.91;5090042;28;20094;-60
2022/12/29 09:40:55;;;;;;;9.65;2.20;;;;;;;10.98;75.01;99960.28;5094038;28;20059;-60
2022/12/29 09:43:46;;;;;;;10.73;1.80;;;;;;;11.11;74.00;99975.63;5086037;28;20508;-61
2022/12/29 09:46:23;;;;;;;11.35;1.75;;;;;;;11.03;72.12;99970.38;5093996;28;20044;-59
2022/12/29 09:49:14;;;;;;;7.68;1.75;;;;;;;10.94;72.26;99981.03;5089027;28;20093;-60
2022/12/29 09:51:46;;;;;;;12.05;1.80;;;;;;;10.84;73.22;99976.94;5092347;28;20048;-61
2022/12/29 09:54:38;;;;;;;9.98;1.83;;;;;;;11.03;71.00;99968.56;5087785;28;20036;-59
2022/12/29 09:57:16;;;;;;;10.50;1.70;;;;;;;11.21;69.48;99973.56;5093397;28;20109;-61
2022/12/29 09:59:46;;;;;;;14.25;2.13;;;;;;;11.31;67.11;99968.88;5090572;28;20048;-61
2022/12/29 10:02:25;;;;;;;13.45;2.13;;;;;;;11.46;67.35;99978.69;5093781;28;20055;-61
2022/12/29 10:04:52;;;;;;;9.55;1.67;;;;;;;11.41;66.36;99976.59;5091856;28;20044;-60
2022/12/29 10:07:59;;;;;;;15.75;2.25;;;;;;;11.48;67.18;99974.03;5091933;28;20068;-60
2022/12/29 10:10:38;;;;;;;12.00;1.85;;;;;;;11.52;65.62;99972.69;5093068;28;20054;-60
2022/12/29 10:13:29;;;;;;;7.38;1.40;;;;;;;11.47;65.41;99975.84;5088917;28;20513;-62
2022/12/29 10:16:24;;;;;;;10.73;1.80;;;;;;;11.45;64.72;99971.75;5093371;28;20071;-60
2022/12/29 10:19:06;;;;;;;7.55;1.60;;;;;;;11.33;65.63;99964.19;5089881;28;20047;-60
2022/12/29 10:21:39;;;;;;;11.95;1.98;;;;;;;11.32;65.69;99972.34;5092990;28;20058;-60
2022/12/29 10:24:10;;;;;;;14.90;3.85;;;;;;;11.32;64.91;99975.00;5088640;28;20037;-60
2022/12/29 10:26:41;;;;;;;;;;;;;;;11.38;64.93;99976.09;5093172;28;20040;-60
2022/12/29 10:29:31;;;;;;;14.73;2.13;;;;;;;11.44;65.04;99973.56;5088163;28;19926;-60
2022/12/29 10:32:02;;;;;;;9.63;1.85;;;;;;;11.42;65.21;99972.09;5091847;28;20456;-60
2022/12/29 10:34:34;;;;;;;9.35;1.80;;;;;;;11.45;65.14;99974.41;5088172;28;20055;-60
2022/12/29 10:37:11;;;;;;;16.60;2.30;;;;;;;11.51;66.08;99985.16;5093462;28;20063;-60
2022/12/29 10:39:47;;;;;;;16.90;3.42;;;;;;;11.38;64.77;99970.81;5088515;28;20485;-60
2022/12/29 10:42:28;;;;;;;14.05;2.10;;;;;;;11.40;65.04;99995.34;5093339;28;20044;-60
2022/12/29 10:44:57;;;;;;;15.10;2.45;;;;;;;11.52;65.54;99989.44;5092999;28;20051;-60
2022/12/29 10:47:32;;;;;;;9.60;1.67;;;;;;;11.52;66.13;100007.22;5096414;28;20131;-60
2022/12/29 10:50:00;;;;;;;8.93;1.83;;;;;;;11.54;64.62;99999.88;5092303;28;20043;-61
2022/12/29 10:52:30;;;;;;;9.15;1.65;;;;;;;11.55;65.02;99995.38;5096187;28;20049;-60
2022/12/29 10:55:12;;;;;;;11.13;1.55;;;;;;;11.61;64.92;99989.38;5091296;28;20077;-60
2022/12/29 10:57:44;;;;;;;22.73;1.88;;;;;;;11.67;64.67;100016.03;5096864;28;20043;-60
2022/12/29 11:00:16;;;;;;;16.42;1.98;;;;;;;11.65;63.85;100011.91;5092637;28;20098;-60
2022/12/29 11:05:54;;;;;;;12.57;2.17;;;;;;;12.12;62.29;100016.16;5105458;27;20380;-60
2022/12/29 11:08:26;;;;;;;17.48;2.25;;;;;;;12.57;61.35;100011.69;5100261;28;20562;-59
2022/12/29 11:11:04;;;;;;;14.35;2.08;;;;;;;11.85;62.62;100022.88;5106641;28;20451;-59
2022/12/29 11:13:33;;;;;;;13.05;1.45;;;;;;;11.65;63.63;100014.56;5109037;28;20039;-59
2022/12/29 11:16:04;;;;;;;11.07;1.75;;;;;;;11.48;64.17;100027.97;5089652;28;20043;-59
2022/12/29 11:18:37;;;;;;;21.02;1.98;;;;;;;11.47;64.69;100031.63;5109202;28;20043;-60
2022/12/29 11:21:23;;;;;;;12.00;1.60;;;;;;;12.07;64.04;100039.81;5107049;28;20122;-60
2022/12/29 11:24:26;;;;;;;13.35;2.00;;;;;;;12.03;63.09;100044.66;5106001;28;20268;-60
2022/12/29 11:26:57;;;;;;;19.52;1.98;;;;;;;11.72;64.06;100039.44;5110906;28;20056;-60
2022/12/29 11:29:29;;;;;;;9.30;1.75;;;;;;;11.46;65.34;100042.41;5105988;28;20075;-61
2022/12/29 11:31:58;;;;;;;13.68;1.90;;;;;;;11.28;65.34;100056.00;5109569;28;20055;-62
2022/12/29 11:34:32;;;;;;;16.48;2.35;;;;;;;11.20;65.38;100048.91;5106151;28;20044;-62
2022/12/29 11:37:04;;;;;;;10.93;2.05;;;;;;;11.24;65.09;100060.84;5110537;28;20063;-62
2022/12/29 11:39:36;;;;;;;16.15;2.30;;;;;;;11.18;65.45;100042.13;5106256;28;20118;-61
2022/12/29 11:42:09;;;;;;;9.85;1.77;;;;;;;11.17;65.05;100043.09;5109144;28;20051;-62
2022/12/29 11:44:43;;;;;;;19.20;2.17;;;;;;;11.13;64.87;100047.94;5102562;28;20336;-62
2022/12/29 11:47:20;;;;;;;17.00;2.28;;;;;;;11.09;65.42;100049.28;5109268;28;20469;-62
2022/12/29 11:49:53;;;;;;;17.60;2.00;;;;;;;10.99;66.27;100057.50;5105641;28;20051;-61
2022/12/29 11:52:23;;;;;;;12.02;1.90;;;;;;;11.07;65.79;100064.56;5109220;28;20044;-62
2022/12/29 11:54:51;;;;;;;12.70;2.03;;;;;;;11.06;65.53;100065.56;5104792;28;20109;-62
2022/12/29 11:57:20;;;;;;;15.90;1.88;;;;;;;11.05;64.81;100062.09;5110304;28;20554;-62
2022/12/29 11:59:54;;;;;;;18.40;2.20;;;;;;;10.93;65.51;100076.72;5105462;28;20032;-60
2022/12/29 12:02:32;;;;;;;12.15;1.67;;;;;;;10.99;66.02;100076.06;5110472;28;20481;-62
2022/12/29 12:05:09;;;;;;;18.45;1.90;;;;;;;10.95;66.02;100074.72;5104910;28;20093;-60
2022/12/29 12:07:41;;;;;;;14.98;2.15;;;;;;;10.85;66.66;100080.25;5108541;28;20139;-61
2022/12/29 12:10:17;;;;;;;21.65;2.10;;;;;;;10.88;66.22;100081.75;5104143;28;20667;-61
2022/12/29 12:13:05;;;;;;;14.30;1.95;;;;;;;10.95;66.21;100077.38;5109909;28;20048;-62
2022/12/29 12:15:45;;;;;;;10.98;1.75;;;;;;;10.91;66.41;100081.38;5100332;28;20043;-62
2022/12/29 12:18:51;;;;;;;8.02;1.60;;;;;;;10.82;66.08;100077.94;5096460;28;20501;-61
2022/12/29 12:21:30;;;;;;;10.90;1.80;;;;;;;10.89;65.98;100083.41;5090334;28;20050;-62
2022/12/29 12:24:24;;;;;;;11.82;2.05;;;;;;;10.90;66.03;100093.03;5094819;28;20036;-61
2022/12/29 12:27:15;;;;;;;12.10;1.67;;;;;;;10.81;65.90;100097.53;5092280;28;20123;-61
2022/12/29 12:29:51;;;;;;;7.50;1.92;;;;;;;10.80;65.80;100077.28;5091785;28;20043;-61
2022/12/29 12:32:26;;;;;;;9.75;2.15;;;;;;;10.80;65.51;100095.03;5094554;28;20036;-62
2022/12/29 12:34:53;;;;;;;14.68;1.70;;;;;;;10.79;65.69;100088.91;5091042;28;20168;-61
2022/12/29 12:37:59;;;;;;;15.15;2.28;;;;;;;10.81;65.56;100105.47;5096116;28;20436;-61
2022/12/29 12:40:54;;;;;;;20.55;2.65;;;;;;;10.82;65.85;100074.47;5091309;28;20044;-62
2022/12/29 12:43:35;;;;;;;10.63;2.00;;;;;;;10.73;66.31;100094.88;5095367;28;20504;-62
2022/12/29 12:46:30;;;;;;;13.63;1.70;;;;;;;10.69;66.28;100097.06;5086819;28;20048;-62